San Angelo's Hourly Summary for Thursday, March 16, 2017
Hour Temp
(f)
RH
(%)
Solar Rad.
(MJ/m2)
Rainfall
(in)
Wind
(mph)
3/16/2017 12:00 AM 64 66 0 0 7.27
3/16/2017 1:00 AM 63 69 0 0 6.43
3/16/2017 2:00 AM 63 73 0 0 5.74
3/16/2017 3:00 AM 62 76 0 0 7.57
3/16/2017 4:00 AM 62 79 0 0 7.12
3/16/2017 5:00 AM 62 79 0 0 8.42
3/16/2017 6:00 AM 62 79 0 0 7.45
3/16/2017 7:00 AM 63 79 0 0 6.93
3/16/2017 8:00 AM 63 80 0 0 8.69
3/16/2017 9:00 AM 63 82 0.14 0 8.55
3/16/2017 10:00 AM 64 77 0.56 0 9.01
3/16/2017 11:00 AM 66 65 0.89 0 10.69
3/16/2017 12:00 PM 69 59 2.18 0 12.47
3/16/2017 1:00 PM 73 52 2.87 0 12.52
3/16/2017 2:00 PM 76 49 3.04 0 13.18
3/16/2017 3:00 PM 78 44 2.95 0 12.69
3/16/2017 4:00 PM 80 40 2.66 0 12.29
3/16/2017 5:00 PM 81 37 2.05 0 12.57
3/16/2017 6:00 PM 82 37 1.4 0 12.15
3/16/2017 7:00 PM 80 40 0.66 0 11.8
3/16/2017 8:00 PM 77 42 0.12 0 12.99
3/16/2017 9:00 PM 72 54 0 0 12.53
3/16/2017 10:00 PM 70 59 0 0 10.59
3/16/2017 11:00 PM 68 64 0 0 11.36
Data Summary 69 61 19.52 0.00 10.04